Eudora, Arkansas
Current Conditions -  °F | °C
As of 12:53 PM on Saturday 25 Oct 2014 (Local Time) from KGLH Reporting Station
Clear Clear  
Wind Chill: 79°   Ceiling: Unl
Heat Index: 80°   Visibility: 10mi
Dew Point: 59°   Wind: 10mph
Humidity: 50%   Direction: 260°W
Pressure: 30.11"   Gusts: NA
Location:  33.11°N, 91.26°W
Report Text: KGLH 251753Z AUTO 26009KT 10SM CLR 26/15 A3011 RMK AO2 SLP201 T02610150 10261 20117 58016
Loading
Personal Weather Stations






























Interactive Weather Map
Tropical Storm Tracking
New forecast layout! Learn more

10-Day Weather Forecast

Advertisements
Track Severe Weather on mobile